Time;durP1;ratioP1;P1;durP2;ratioP2;P2;SDS_P1;SDS_P2;PMS_P1;PMS_P2;Temp;Humidity;BMP_temperature;BMP_pressure;BME280_temperature;BME280_humidity;BME280_pressure;Samples;Min_cycle;Max_cycle;Signal;HPM_P1;HPM_P2
2021/01/31 07:01:19;;;;;;;95.07;45.20;;;;;;;;;;5030549;28;20135;-72
2021/01/31 07:04:08;;;;;;;67.38;35.28;;;;;;;;;;5030863;28;20037;-68
2021/01/31 07:06:52;;;;;;;104.60;53.92;;;;;;;;;;5024871;28;20041;-72
2021/01/31 07:09:28;;;;;;;59.30;33.45;;;;;;;;;;5030946;28;20069;-72
2021/01/31 07:11:57;;;;;;;31.88;17.85;;;;;;;;;;5028321;28;20026;-72
2021/01/31 07:14:23;;;;;;;30.88;18.42;;;;;;;;;;5030098;28;20022;-72
2021/01/31 07:17:03;;;;;;;67.78;33.75;;;;;;;;;;5031155;28;20414;-72
2021/01/31 07:19:38;;;;;;;100.50;50.10;;;;;;;;;;5030857;28;20081;-72
2021/01/31 07:22:07;;;;;;;109.63;56.95;;;;;;;;;;5030432;28;20145;-72
2021/01/31 07:24:52;;;;;;;83.20;41.50;;;;;;;;;;5013192;28;20581;-72
2021/01/31 07:27:17;;;;;;;73.70;40.90;;;;;;;;;;5031093;28;20780;-72
2021/01/31 07:29:55;;;;;;;82.97;48.22;;;;;;;;;;5030411;28;20026;-72
2021/01/31 07:32:24;;;;;;;65.22;32.95;;;;;;;;;;5029624;28;20084;-72
2021/01/31 07:34:54;;;;;;;136.27;58.67;;;;;;;;;;5029115;28;20024;-72
2021/01/31 07:37:20;;;;;;;58.83;30.35;;;;;;;;;;5029016;28;20038;-69
2021/01/31 07:39:58;;;;;;;26.17;16.67;;;;;;;;;;5026678;28;20025;-71
2021/01/31 07:42:24;;;;;;;25.52;14.52;;;;;;;;;;5027499;28;20029;-70
2021/01/31 07:44:55;;;;;;;139.18;69.90;;;;;;;;;;5029550;28;20349;-70
2021/01/31 07:47:23;;;;;;;134.55;65.47;;;;;;;;;;5028058;28;20091;-71
2021/01/31 07:49:58;;;;;;;200.43;94.20;;;;;;;;;;5028586;28;20036;-71
2021/01/31 07:52:24;;;;;;;187.23;94.57;;;;;;;;;;5027421;28;20171;-71
2021/01/31 07:55:06;;;;;;;263.40;130.45;;;;;;;;;;5029553;28;20126;-70
2021/01/31 07:57:37;;;;;;;169.77;83.97;;;;;;;;;;5029341;28;20034;-70
2021/01/31 08:00:10;;;;;;;99.68;49.45;;;;;;;;;;5029198;28;20029;-64
2021/01/31 08:02:37;;;;;;;68.82;36.63;;;;;;;;;;5029628;28;20468;-70
2021/01/31 08:05:04;;;;;;;54.17;27.70;;;;;;;;;;5029463;28;20388;-70
2021/01/31 08:07:48;;;;;;;103.05;43.63;;;;;;;;;;5029899;28;20625;-70
2021/01/31 08:10:34;;;;;;;51.28;25.63;;;;;;;;;;5027176;28;20873;-68
2021/01/31 08:12:59;;;;;;;40.00;22.38;;;;;;;;;;5030131;28;20033;-68
2021/01/31 08:15:31;;;;;;;47.60;25.95;;;;;;;;;;5030758;28;20022;-68
2021/01/31 08:17:57;;;;;;;50.65;27.52;;;;;;;;;;5030209;28;20022;-68
2021/01/31 08:20:29;;;;;;;45.25;24.38;;;;;;;;;;5029654;28;20033;-68
2021/01/31 08:22:56;;;;;;;41.65;23.10;;;;;;;;;;5028108;28;20040;-68
2021/01/31 08:25:23;;;;;;;46.50;25.52;;;;;;;;;;5029446;28;20035;-68
2021/01/31 08:27:51;;;;;;;54.40;29.65;;;;;;;;;;5030076;28;20150;-68
2021/01/31 08:30:16;;;;;;;58.67;32.60;;;;;;;;;;5029801;28;20474;-68
2021/01/31 08:32:57;;;;;;;74.25;40.28;;;;;;;;;;5029525;28;20037;-67
2021/01/31 08:35:24;;;;;;;;;;;;;;;;;;5029053;28;20044;-67
2021/01/31 08:37:52;;;;;;;124.63;67.10;;;;;;;;;;5027139;28;19917;-71
2021/01/31 08:40:19;;;;;;;129.43;70.45;;;;;;;;;;5026500;28;20056;-70
2021/01/31 08:42:48;;;;;;;148.75;80.72;;;;;;;;;;5028915;28;20100;-71
2021/01/31 08:45:14;;;;;;;133.07;70.32;;;;;;;;;;5026908;28;20511;-70
2021/01/31 08:47:41;;;;;;;109.28;56.05;;;;;;;;;;5025400;28;20030;-70
2021/01/31 08:50:08;;;;;;;114.32;61.58;;;;;;;;;;5024923;28;20030;-70
2021/01/31 08:52:33;;;;;;;111.63;58.88;;;;;;;;;;5025056;28;20087;-70
2021/01/31 08:55:03;;;;;;;120.72;61.90;;;;;;;;;;5025385;28;20438;-71
2021/01/31 08:57:29;;;;;;;132.93;65.45;;;;;;;;;;5024806;28;20033;-70
2021/01/31 08:59:56;;;;;;;131.38;69.55;;;;;;;;;;5025432;28;20029;-70
2021/01/31 09:02:25;;;;;;;128.50;70.38;;;;;;;;;;5026198;28;20568;-70
2021/01/31 09:04:51;;;;;;;118.25;65.05;;;;;;;;;;5026479;28;20025;-71
2021/01/31 09:07:21;;;;;;;81.90;46.22;;;;;;;;;;5026880;28;20451;-71
2021/01/31 09:09:51;;;;;;;75.35;41.67;;;;;;;;;;5026046;28;20073;-71
2021/01/31 09:12:18;;;;;;;50.63;28.73;;;;;;;;;;5025949;28;20036;-70
2021/01/31 09:14:44;;;;;;;63.20;35.08;;;;;;;;;;5027071;28;20432;-70
2021/01/31 09:17:11;;;;;;;39.22;23.90;;;;;;;;;;5026858;28;20497;-70
2021/01/31 09:19:38;;;;;;;37.63;21.52;;;;;;;;;;5025756;28;20062;-70
2021/01/31 09:22:18;;;;;;;34.88;20.42;;;;;;;;;;5024912;28;20029;-71
2021/01/31 09:24:45;;;;;;;34.25;21.48;;;;;;;;;;5026851;28;20025;-67
2021/01/31 09:27:21;;;;;;;32.33;20.10;;;;;;;;;;5026092;28;20025;-68
2021/01/31 09:29:48;;;;;;;29.42;17.63;;;;;;;;;;5024584;28;20183;-70
2021/01/31 09:32:13;;;;;;;28.95;18.00;;;;;;;;;;5024469;28;20025;-70
2021/01/31 09:34:39;;;;;;;34.22;18.42;;;;;;;;;;5025548;28;20033;-71
2021/01/31 09:37:06;;;;;;;34.05;18.15;;;;;;;;;;5026079;28;20164;-70
2021/01/31 09:39:33;;;;;;;29.33;18.73;;;;;;;;;;5024246;28;20091;-71
2021/01/31 09:41:58;;;;;;;33.25;19.25;;;;;;;;;;5025300;28;20025;-70
2021/01/31 09:44:24;;;;;;;31.25;18.27;;;;;;;;;;5025729;28;20553;-70
2021/01/31 09:46:50;;;;;;;29.13;17.15;;;;;;;;;;5024155;28;20468;-70
2021/01/31 09:49:18;;;;;;;27.58;17.23;;;;;;;;;;5025595;28;20460;-71
2021/01/31 09:51:44;;;;;;;29.92;17.02;;;;;;;;;;5025049;28;20109;-71
2021/01/31 09:54:12;;;;;;;27.60;16.83;;;;;;;;;;5025693;28;20029;-71
2021/01/31 09:56:40;;;;;;;28.80;17.65;;;;;;;;;;5024710;28;20037;-70
2021/01/31 09:59:25;;;;;;;29.27;17.75;;;;;;;;;;5025678;28;20037;-71
2021/01/31 10:02:06;;;;;;;26.58;16.77;;;;;;;;;;5017517;28;20483;-71
2021/01/31 10:04:33;;;;;;;29.27;16.10;;;;;;;;;;5025242;28;20029;-71
2021/01/31 10:07:09;;;;;;;24.67;14.90;;;;;;;;;;5025490;28;20212;-70
2021/01/31 10:09:39;;;;;;;25.23;15.00;;;;;;;;;;5025499;28;20141;-71
2021/01/31 10:12:20;;;;;;;27.50;14.82;;;;;;;;;;5024505;28;20029;-71
2021/01/31 10:14:46;;;;;;;26.73;16.23;;;;;;;;;;5023622;28;20044;-70
2021/01/31 10:17:38;;;;;;;29.20;16.23;;;;;;;;;;5025109;28;20091;-71
2021/01/31 10:20:40;;;;;;;45.30;22.17;;;;;;;;;;5024151;28;20081;-63
2021/01/31 10:23:06;;;;;;;34.65;18.45;;;;;;;;;;4989802;28;20426;-70
2021/01/31 10:25:36;;;;;;;27.58;14.73;;;;;;;;;;5024698;28;20036;-70
2021/01/31 10:28:03;;;;;;;18.25;10.90;;;;;;;;;;5033356;28;20025;-70
2021/01/31 10:30:44;;;;;;;29.45;15.25;;;;;;;;;;5033480;28;20051;-70
2021/01/31 10:33:29;;;;;;;42.22;22.75;;;;;;;;;;5032979;28;20104;-70
2021/01/31 10:35:54;;;;;;;41.33;22.42;;;;;;;;;;5032938;28;20032;-70
2021/01/31 10:38:31;;;;;;;38.15;20.77;;;;;;;;;;5032367;28;20446;-70
2021/01/31 10:40:57;;;;;;;38.15;19.08;;;;;;;;;;5032888;28;20034;-70
2021/01/31 10:43:24;;;;;;;32.40;16.88;;;;;;;;;;5031681;28;20075;-70
2021/01/31 10:45:49;;;;;;;30.23;16.63;;;;;;;;;;5033025;28;20035;-70
2021/01/31 10:48:15;;;;;;;19.60;11.00;;;;;;;;;;5033145;28;20092;-70
2021/01/31 10:50:40;;;;;;;16.35;9.48;;;;;;;;;;5031826;28;20124;-70
2021/01/31 10:53:07;;;;;;;34.00;16.33;;;;;;;;;;5033076;28;20018;-70
2021/01/31 10:55:32;;;;;;;33.40;15.05;;;;;;;;;;5032957;28;20088;-70
2021/01/31 10:57:58;;;;;;;63.22;30.92;;;;;;;;;;5032976;28;20021;-70
2021/01/31 11:00:24;;;;;;;31.83;15.90;;;;;;;;;;5033181;28;20097;-70
2021/01/31 11:02:49;;;;;;;31.17;17.73;;;;;;;;;;5032879;28;20022;-70
2021/01/31 11:05:15;;;;;;;24.17;13.65;;;;;;;;;;5033044;28;20080;-70
2021/01/31 11:07:42;;;;;;;22.73;12.00;;;;;;;;;;5031805;28;20570;-70
2021/01/31 11:10:10;;;;;;;19.95;10.95;;;;;;;;;;5031668;28;20037;-70
2021/01/31 11:12:35;;;;;;;24.77;13.75;;;;;;;;;;5032836;28;20017;-70
2021/01/31 11:15:00;;;;;;;38.75;17.10;;;;;;;;;;5031162;28;20060;-70
2021/01/31 11:17:26;;;;;;;25.17;11.88;;;;;;;;;;5032884;28;20022;-70
2021/01/31 11:19:51;;;;;;;20.10;11.07;;;;;;;;;;5031322;28;20125;-70
2021/01/31 11:22:17;;;;;;;21.95;10.18;;;;;;;;;;5032883;28;20055;-70
2021/01/31 11:24:43;;;;;;;16.23;9.88;;;;;;;;;;5032900;28;20030;-70
2021/01/31 11:27:09;;;;;;;22.65;11.73;;;;;;;;;;5032899;28;20021;-70
2021/01/31 11:29:34;;;;;;;17.85;10.30;;;;;;;;;;5032839;28;20116;-70
2021/01/31 11:32:00;;;;;;;18.77;11.45;;;;;;;;;;5031486;28;20167;-70
2021/01/31 11:34:27;;;;;;;24.70;10.52;;;;;;;;;;5032613;28;20037;-70
2021/01/31 11:36:52;;;;;;;22.05;11.88;;;;;;;;;;5032531;28;20072;-70
2021/01/31 11:39:18;;;;;;;20.17;11.93;;;;;;;;;;5031528;28;20407;-70
2021/01/31 11:41:43;;;;;;;39.60;19.20;;;;;;;;;;5031498;28;20175;-70
2021/01/31 11:44:08;;;;;;;39.10;18.00;;;;;;;;;;5032574;28;20029;-70
2021/01/31 11:46:34;;;;;;;30.85;16.25;;;;;;;;;;5035082;28;20049;-70
2021/01/31 11:49:00;;;;;;;34.20;18.13;;;;;;;;;;5036288;28;20029;-70
2021/01/31 11:51:26;;;;;;;23.67;13.32;;;;;;;;;;5035078;28;20475;-70
2021/01/31 11:53:51;;;;;;;28.00;15.52;;;;;;;;;;5034918;28;20037;-70
2021/01/31 11:56:17;;;;;;;63.67;29.23;;;;;;;;;;5034963;28;20519;-70
2021/01/31 11:58:42;;;;;;;40.05;18.05;;;;;;;;;;5036147;28;20487;-70
2021/01/31 12:01:11;;;;;;;22.27;11.82;;;;;;;;;;5034911;28;20108;-70
2021/01/31 12:03:36;;;;;;;25.88;15.40;;;;;;;;;;5036134;28;20047;-70
2021/01/31 12:06:02;;;;;;;27.00;15.50;;;;;;;;;;5034774;28;20025;-70
2021/01/31 12:08:27;;;;;;;24.77;13.90;;;;;;;;;;5034512;28;20037;-70
2021/01/31 12:10:52;;;;;;;25.63;13.35;;;;;;;;;;5036047;28;20107;-70
2021/01/31 12:13:18;;;;;;;25.48;13.43;;;;;;;;;;5035700;28;20029;-70
2021/01/31 12:15:44;;;;;;;24.52;14.15;;;;;;;;;;5035927;28;20018;-70
2021/01/31 12:18:09;;;;;;;31.63;16.25;;;;;;;;;;5034664;28;20029;-70
2021/01/31 12:20:35;;;;;;;26.70;15.18;;;;;;;;;;5034275;28;20431;-70
2021/01/31 12:23:00;;;;;;;27.13;14.13;;;;;;;;;;5035686;28;20101;-70
2021/01/31 12:25:26;;;;;;;36.67;19.45;;;;;;;;;;5035643;28;20033;-70
2021/01/31 12:27:52;;;;;;;25.67;13.70;;;;;;;;;;5035710;28;20521;-69
2021/01/31 12:30:18;;;;;;;22.90;12.52;;;;;;;;;;5035606;28;20079;-70
2021/01/31 12:32:44;;;;;;;24.90;12.57;;;;;;;;;;5035597;28;20488;-70
2021/01/31 12:35:09;;;;;;;21.40;12.20;;;;;;;;;;5035328;28;20032;-69
2021/01/31 12:37:35;;;;;;;22.42;11.85;;;;;;;;;;5035406;28;20491;-69
2021/01/31 12:40:00;;;;;;;24.52;13.38;;;;;;;;;;5035422;28;20029;-69
2021/01/31 12:42:26;;;;;;;24.73;12.35;;;;;;;;;;5035424;28;20113;-70
2021/01/31 12:44:51;;;;;;;23.55;12.35;;;;;;;;;;5035406;28;20116;-69
2021/01/31 12:47:17;;;;;;;22.77;12.27;;;;;;;;;;5035241;28;20113;-70
2021/01/31 12:49:43;;;;;;;20.17;11.73;;;;;;;;;;5035213;28;20460;-69
2021/01/31 12:52:09;;;;;;;25.88;12.13;;;;;;;;;;5035303;28;20045;-69
2021/01/31 12:54:34;;;;;;;21.05;12.02;;;;;;;;;;5035018;28;20025;-70
2021/01/31 12:57:00;;;;;;;25.42;13.40;;;;;;;;;;5033605;28;20549;-70
2021/01/31 12:59:25;;;;;;;29.90;15.18;;;;;;;;;;5033838;28;20100;-70
2021/01/31 13:01:51;;;;;;;46.08;21.60;;;;;;;;;;5034826;28;20388;-70
2021/01/31 13:04:16;;;;;;;31.05;15.50;;;;;;;;;;5033415;28;20037;-69
2021/01/31 13:06:42;;;;;;;22.30;13.13;;;;;;;;;;5035042;28;20567;-69
2021/01/31 13:09:07;;;;;;;27.13;14.13;;;;;;;;;;5033857;28;20104;-69
2021/01/31 13:11:33;;;;;;;38.67;18.95;;;;;;;;;;5034876;28;20087;-69
2021/01/31 13:13:58;;;;;;;36.63;17.70;;;;;;;;;;5034580;28;20464;-69
2021/01/31 13:16:24;;;;;;;27.67;12.98;;;;;;;;;;5033292;28;20471;-69
2021/01/31 13:18:49;;;;;;;23.90;13.30;;;;;;;;;;5034339;28;20037;-69
2021/01/31 13:21:15;;;;;;;34.88;17.65;;;;;;;;;;5034898;28;20028;-70
2021/01/31 13:23:41;;;;;;;37.00;19.20;;;;;;;;;;5034541;28;20030;-69
2021/01/31 13:26:08;;;;;;;78.53;40.40;;;;;;;;;;5034467;28;20036;-69
2021/01/31 13:28:33;;;;;;;31.77;17.83;;;;;;;;;;5034330;28;20028;-69
2021/01/31 13:31:00;;;;;;;20.25;11.77;;;;;;;;;;5034478;28;20030;-69
2021/01/31 13:33:25;;;;;;;21.02;11.15;;;;;;;;;;5034218;28;20526;-69
2021/01/31 13:35:51;;;;;;;22.92;12.35;;;;;;;;;;5034337;28;20025;-70
2021/01/31 13:38:17;;;;;;;21.40;11.18;;;;;;;;;;5034195;28;20464;-69
2021/01/31 13:40:42;;;;;;;27.73;13.48;;;;;;;;;;5034210;28;20037;-70
2021/01/31 13:43:08;;;;;;;30.17;16.00;;;;;;;;;;5033095;28;20361;-69
2021/01/31 13:45:34;;;;;;;18.90;10.20;;;;;;;;;;5034171;28;20030;-69
2021/01/31 13:47:59;;;;;;;25.52;11.98;;;;;;;;;;5034179;28;20468;-69
2021/01/31 13:50:26;;;;;;;24.85;14.38;;;;;;;;;;5033999;28;20032;-69
2021/01/31 13:52:51;;;;;;;27.38;13.00;;;;;;;;;;5034013;28;20470;-70
2021/01/31 13:55:17;;;;;;;48.72;20.33;;;;;;;;;;5033852;28;20431;-69
2021/01/31 13:57:43;;;;;;;34.63;15.75;;;;;;;;;;5032195;28;20053;-69
2021/01/31 14:00:09;;;;;;;28.58;13.18;;;;;;;;;;5032959;28;20045;-70
2021/01/31 14:02:36;;;;;;;36.60;15.38;;;;;;;;;;5033852;28;20060;-69
2021/01/31 14:05:02;;;;;;;15.30;9.30;;;;;;;;;;5033920;28;20065;-69
2021/01/31 14:07:27;;;;;;;16.70;8.18;;;;;;;;;;5033816;28;20491;-69
2021/01/31 14:09:53;;;;;;;25.42;12.35;;;;;;;;;;5031895;28;20033;-70
2021/01/31 14:12:18;;;;;;;35.20;14.60;;;;;;;;;;5033645;28;20029;-70
2021/01/31 14:14:44;;;;;;;102.20;45.83;;;;;;;;;;5033609;28;20164;-69
2021/01/31 14:17:09;;;;;;;107.78;51.50;;;;;;;;;;5033742;28;20131;-70
2021/01/31 14:19:36;;;;;;;75.10;30.05;;;;;;;;;;5033007;28;20037;-69
2021/01/31 14:22:02;;;;;;;39.33;16.38;;;;;;;;;;5033510;28;20025;-69
2021/01/31 14:24:28;;;;;;;60.90;20.67;;;;;;;;;;5032325;28;20028;-69
2021/01/31 14:26:54;;;;;;;35.97;15.27;;;;;;;;;;5033585;28;20056;-69
2021/01/31 14:29:19;;;;;;;44.38;16.48;;;;;;;;;;5033496;28;20464;-69
2021/01/31 14:31:45;;;;;;;58.63;22.08;;;;;;;;;;5033424;28;20026;-70
2021/01/31 14:34:11;;;;;;;67.97;26.08;;;;;;;;;;5033208;28;20017;-69
2021/01/31 14:36:38;;;;;;;63.80;24.17;;;;;;;;;;5033308;28;20030;-69
2021/01/31 14:39:04;;;;;;;47.60;19.63;;;;;;;;;;5033241;28;20057;-69
2021/01/31 14:41:29;;;;;;;46.47;21.05;;;;;;;;;;5033314;28;20479;-69
2021/01/31 14:43:55;;;;;;;55.65;21.88;;;;;;;;;;5033222;28;20018;-69
2021/01/31 14:46:20;;;;;;;36.72;19.08;;;;;;;;;;5033213;28;20033;-69
2021/01/31 14:48:46;;;;;;;91.35;42.88;;;;;;;;;;5033246;28;20047;-69
2021/01/31 14:51:11;;;;;;;64.43;27.95;;;;;;;;;;5032753;28;20032;-69
2021/01/31 14:53:37;;;;;;;74.72;32.13;;;;;;;;;;5032997;28;20491;-69
2021/01/31 14:56:04;;;;;;;61.83;27.50;;;;;;;;;;5031815;28;20179;-69
2021/01/31 14:58:29;;;;;;;56.63;24.10;;;;;;;;;;5032913;28;20025;-69
2021/01/31 15:00:55;;;;;;;40.50;18.40;;;;;;;;;;5033184;28;20037;-69
2021/01/31 15:03:21;;;;;;;38.38;17.90;;;;;;;;;;5033049;28;20026;-69
2021/01/31 15:05:47;;;;;;;35.03;17.58;;;;;;;;;;5031697;28;20022;-69
2021/01/31 15:08:13;;;;;;;34.45;16.25;;;;;;;;;;5032903;28;20491;-69
2021/01/31 15:10:39;;;;;;;45.60;21.02;;;;;;;;;;5033058;28;20483;-69
2021/01/31 15:13:05;;;;;;;50.17;23.30;;;;;;;;;;5033007;28;20105;-69
2021/01/31 15:15:31;;;;;;;66.65;32.45;;;;;;;;;;5032878;28;20033;-69
2021/01/31 15:17:56;;;;;;;65.65;30.42;;;;;;;;;;5032987;28;20013;-69
2021/01/31 15:20:24;;;;;;;73.50;32.97;;;;;;;;;;5033294;28;20037;-69
2021/01/31 15:22:50;;;;;;;73.43;34.88;;;;;;;;;;5036889;28;20098;-69
2021/01/31 15:25:16;;;;;;;59.80;28.23;;;;;;;;;;5036768;28;20045;-69
2021/01/31 15:27:41;;;;;;;50.75;27.80;;;;;;;;;;5036901;28;20036;-69
2021/01/31 15:30:08;;;;;;;65.68;30.20;;;;;;;;;;5036748;28;20033;-69
2021/01/31 15:32:33;;;;;;;69.68;31.95;;;;;;;;;;5035520;28;20037;-69
2021/01/31 15:34:59;;;;;;;46.08;22.30;;;;;;;;;;5035209;28;20387;-69
2021/01/31 15:37:25;;;;;;;46.75;22.83;;;;;;;;;;5035210;28;20034;-69
2021/01/31 15:39:50;;;;;;;51.67;23.65;;;;;;;;;;5036526;28;20491;-69
2021/01/31 15:42:16;;;;;;;41.30;22.08;;;;;;;;;;5036530;28;20044;-69
2021/01/31 15:44:41;;;;;;;40.95;21.83;;;;;;;;;;5036015;28;20025;-69
2021/01/31 15:47:07;;;;;;;38.80;19.92;;;;;;;;;;5036702;28;20436;-69
2021/01/31 15:49:32;;;;;;;46.42;22.55;;;;;;;;;;5036305;28;20036;-69
2021/01/31 15:51:59;;;;;;;47.20;23.90;;;;;;;;;;5036217;28;20025;-70
2021/01/31 15:54:24;;;;;;;58.15;28.75;;;;;;;;;;5036297;28;20137;-69
2021/01/31 15:56:51;;;;;;;63.92;32.38;;;;;;;;;;5036339;28;20057;-69
2021/01/31 15:59:17;;;;;;;87.78;43.30;;;;;;;;;;5036041;28;20075;-69
2021/01/31 18:33:18;;;;;;;178.20;94.28;;;;;;;;;;5028979;28;20033;-70
2021/01/31 18:35:45;;;;;;;180.60;93.55;;;;;;;;;;5029494;28;20026;-71
2021/01/31 18:38:10;;;;;;;370.52;198.20;;;;;;;;;;5029869;28;20025;-71
2021/01/31 18:40:36;;;;;;;559.25;323.02;;;;;;;;;;5030117;28;20033;-70
2021/01/31 18:43:03;;;;;;;356.40;148.18;;;;;;;;;;5030233;28;20048;-70
2021/01/31 18:45:28;;;;;;;373.73;156.98;;;;;;;;;;5028168;28;20033;-70
2021/01/31 18:47:54;;;;;;;427.10;181.20;;;;;;;;;;5030159;28;20033;-70
2021/01/31 18:50:22;;;;;;;539.17;211.15;;;;;;;;;;5030185;28;20026;-70
2021/01/31 18:52:48;;;;;;;545.92;193.90;;;;;;;;;;5029538;28;20384;-70
2021/01/31 18:55:14;;;;;;;418.35;154.35;;;;;;;;;;5028221;28;20033;-70
2021/01/31 18:57:40;;;;;;;443.85;224.07;;;;;;;;;;5029088;28;20037;-70
2021/01/31 19:00:06;;;;;;;427.20;211.25;;;;;;;;;;5030055;28;20027;-70
2021/01/31 19:02:32;;;;;;;314.58;135.00;;;;;;;;;;5028701;28;20187;-70
2021/01/31 19:04:57;;;;;;;377.45;132.02;;;;;;;;;;5028646;28;20053;-70
2021/01/31 19:07:23;;;;;;;352.83;126.07;;;;;;;;;;5028692;28;20491;-70
2021/01/31 19:09:49;;;;;;;209.07;91.50;;;;;;;;;;5027807;28;20032;-70
2021/01/31 19:12:15;;;;;;;201.77;94.22;;;;;;;;;;5028666;28;20033;-70
2021/01/31 19:14:40;;;;;;;226.95;110.80;;;;;;;;;;5028633;28;20033;-70
2021/01/31 19:17:06;;;;;;;199.73;100.43;;;;;;;;;;5028419;28;20331;-70
2021/01/31 19:19:32;;;;;;;210.80;99.35;;;;;;;;;;5028333;28;20164;-70
2021/01/31 19:21:57;;;;;;;170.50;82.78;;;;;;;;;;5027306;28;20033;-70
2021/01/31 19:24:23;;;;;;;162.52;79.35;;;;;;;;;;5028727;28;20048;-70
2021/01/31 19:26:49;;;;;;;176.52;88.07;;;;;;;;;;5028333;28;20454;-70
2021/01/31 19:29:16;;;;;;;217.57;111.03;;;;;;;;;;5028540;28;20426;-70
2021/01/31 19:31:41;;;;;;;206.52;102.50;;;;;;;;;;5028517;28;20057;-70
2021/01/31 19:34:07;;;;;;;205.10;98.65;;;;;;;;;;5028620;28;20049;-70
2021/01/31 19:36:32;;;;;;;212.25;103.18;;;;;;;;;;5026670;28;20064;-70
2021/01/31 19:38:59;;;;;;;224.77;97.22;;;;;;;;;;5028227;28;20029;-70
2021/01/31 19:41:24;;;;;;;242.15;102.40;;;;;;;;;;5028738;28;20040;-70
2021/01/31 19:43:50;;;;;;;182.95;90.00;;;;;;;;;;5028385;28;20025;-70
2021/01/31 19:46:16;;;;;;;176.95;82.78;;;;;;;;;;5026650;28;20076;-70
2021/01/31 19:48:44;;;;;;;157.50;78.97;;;;;;;;;;5027090;28;20024;-70
2021/01/31 19:51:10;;;;;;;170.25;86.22;;;;;;;;;;5028295;28;20040;-70
2021/01/31 19:53:35;;;;;;;176.05;91.05;;;;;;;;;;5026826;28;20399;-71
2021/01/31 19:56:01;;;;;;;382.70;159.02;;;;;;;;;;5027966;28;20025;-70
2021/01/31 19:58:26;;;;;;;361.48;131.18;;;;;;;;;;5028350;28;20025;-70
2021/01/31 20:00:52;;;;;;;321.55;123.57;;;;;;;;;;5027085;28;20466;-70
2021/01/31 20:03:17;;;;;;;261.80;105.07;;;;;;;;;;5028209;28;20366;-70
2021/01/31 20:05:42;;;;;;;161.43;78.13;;;;;;;;;;5028113;28;20033;-70
2021/01/31 20:08:08;;;;;;;142.52;70.88;;;;;;;;;;5031272;28;20029;-70
2021/01/31 20:10:35;;;;;;;135.75;67.82;;;;;;;;;;5031699;28;20065;-70
2021/01/31 20:13:01;;;;;;;130.68;65.97;;;;;;;;;;5030158;28;20033;-70
2021/01/31 20:15:27;;;;;;;135.25;68.63;;;;;;;;;;5031564;28;20041;-70
2021/01/31 20:17:53;;;;;;;146.00;74.53;;;;;;;;;;5031380;28;20526;-70
2021/01/31 20:20:24;;;;;;;173.27;87.15;;;;;;;;;;5030986;28;20092;-70
2021/01/31 20:22:52;;;;;;;335.50;170.82;;;;;;;;;;5031649;28;20029;-70
2021/01/31 20:25:18;;;;;;;284.45;138.38;;;;;;;;;;5030939;28;20045;-69
2021/01/31 20:27:45;;;;;;;286.00;138.85;;;;;;;;;;5031356;28;20030;-70
2021/01/31 20:30:11;;;;;;;265.90;122.32;;;;;;;;;;5031477;28;20029;-70
2021/01/31 20:32:37;;;;;;;261.00;122.15;;;;;;;;;;5031583;28;20025;-70
2021/01/31 20:35:03;;;;;;;300.77;132.05;;;;;;;;;;5031166;28;20452;-70
2021/01/31 20:37:28;;;;;;;271.25;125.05;;;;;;;;;;5031434;28;20037;-70
2021/01/31 20:39:54;;;;;;;231.27;110.15;;;;;;;;;;5031096;28;20357;-70
2021/01/31 20:42:25;;;;;;;166.95;82.47;;;;;;;;;;5031124;28;20044;-70
2021/01/31 20:44:50;;;;;;;177.85;87.93;;;;;;;;;;5031056;28;20037;-70
2021/01/31 20:47:16;;;;;;;174.23;82.57;;;;;;;;;;5030847;28;20025;-70
2021/01/31 20:49:41;;;;;;;150.43;73.97;;;;;;;;;;5030955;28;20087;-70
2021/01/31 20:52:07;;;;;;;155.73;74.07;;;;;;;;;;5031095;28;20447;-70
2021/01/31 20:54:32;;;;;;;156.98;75.93;;;;;;;;;;5031034;28;20103;-70
2021/01/31 20:56:58;;;;;;;186.25;91.80;;;;;;;;;;5030842;28;20032;-70
2021/01/31 20:59:23;;;;;;;220.98;103.38;;;;;;;;;;5030837;28;20048;-70
2021/01/31 21:01:49;;;;;;;266.88;123.38;;;;;;;;;;5030868;28;20049;-70
2021/01/31 21:04:14;;;;;;;358.13;174.15;;;;;;;;;;5030769;28;20474;-70
2021/01/31 21:06:41;;;;;;;339.05;165.18;;;;;;;;;;5030633;28;20029;-70
2021/01/31 21:09:08;;;;;;;251.45;118.88;;;;;;;;;;5030608;28;20042;-70
2021/01/31 21:11:35;;;;;;;207.95;99.55;;;;;;;;;;5030415;28;20032;-70
2021/01/31 21:14:00;;;;;;;243.55;116.53;;;;;;;;;;5030647;28;20046;-70
2021/01/31 21:16:26;;;;;;;294.10;136.73;;;;;;;;;;5028751;28;20017;-70
2021/01/31 21:18:52;;;;;;;359.20;175.43;;;;;;;;;;5030281;28;20037;-70
2021/01/31 21:21:19;;;;;;;301.48;145.98;;;;;;;;;;5030480;28;20120;-70
2021/01/31 21:23:44;;;;;;;375.17;169.07;;;;;;;;;;5030509;28;20048;-70
2021/01/31 21:26:10;;;;;;;446.08;218.02;;;;;;;;;;5030137;28;20026;-70
2021/01/31 21:28:35;;;;;;;428.55;217.52;;;;;;;;;;5030503;28;20443;-70
2021/01/31 21:31:01;;;;;;;438.25;223.20;;;;;;;;;;5030381;28;20133;-70
2021/01/31 21:33:26;;;;;;;332.13;152.75;;;;;;;;;;5031623;28;20018;-70
2021/01/31 21:35:52;;;;;;;264.77;119.95;;;;;;;;;;5034365;28;20021;-70
2021/01/31 21:38:17;;;;;;;262.40;119.22;;;;;;;;;;5033191;28;20029;-70
2021/01/31 21:40:43;;;;;;;259.33;118.60;;;;;;;;;;5032988;28;20499;-70
2021/01/31 21:43:09;;;;;;;273.65;119.78;;;;;;;;;;5034128;28;20072;-70
2021/01/31 21:45:35;;;;;;;319.98;134.32;;;;;;;;;;5034117;28;20113;-70
2021/01/31 21:48:06;;;;;;;233.90;127.47;;;;;;;;;;5034228;28;20506;-70
2021/01/31 21:50:33;;;;;;;203.55;107.03;;;;;;;;;;5033910;28;20388;-70
2021/01/31 21:52:59;;;;;;;164.13;84.60;;;;;;;;;;5034083;28;20025;-70
2021/01/31 21:55:24;;;;;;;176.80;89.05;;;;;;;;;;5032443;28;20029;-70
2021/01/31 21:57:50;;;;;;;145.73;68.80;;;;;;;;;;5065564;28;20017;-70
2021/01/31 22:00:17;;;;;;;128.63;60.90;;;;;;;;;;5033489;28;20053;-70
2021/01/31 22:02:43;;;;;;;111.32;55.97;;;;;;;;;;5033486;28;20014;-69
2021/01/31 22:05:09;;;;;;;131.27;62.00;;;;;;;;;;5033602;28;20040;-70
2021/01/31 22:07:35;;;;;;;115.60;57.50;;;;;;;;;;5032992;28;20104;-70
2021/01/31 22:10:01;;;;;;;128.90;64.63;;;;;;;;;;5033606;28;20029;-70
2021/01/31 22:12:26;;;;;;;218.65;96.55;;;;;;;;;;5033822;28;20034;-69
2021/01/31 22:14:52;;;;;;;223.23;102.22;;;;;;;;;;5033637;28;20033;-69
2021/01/31 22:17:18;;;;;;;135.75;67.97;;;;;;;;;;5033747;28;20100;-69
2021/01/31 22:19:43;;;;;;;106.70;56.60;;;;;;;;;;5032157;28;20444;-69
2021/01/31 22:22:09;;;;;;;99.13;51.00;;;;;;;;;;5033844;28;20025;-69
2021/01/31 22:24:35;;;;;;;99.70;50.78;;;;;;;;;;5033730;28;20049;-69
2021/01/31 22:27:01;;;;;;;108.55;54.13;;;;;;;;;;5033542;28;20033;-69
2021/01/31 22:29:27;;;;;;;115.38;58.33;;;;;;;;;;5065023;28;20017;-69
2021/01/31 22:31:52;;;;;;;140.75;75.45;;;;;;;;;;5033557;28;20083;-69
2021/01/31 22:34:17;;;;;;;169.05;92.88;;;;;;;;;;5033410;28;20430;-69
2021/01/31 22:36:43;;;;;;;176.20;95.90;;;;;;;;;;5033533;28;20112;-69
2021/01/31 22:39:09;;;;;;;188.30;98.00;;;;;;;;;;5033374;28;20017;-69
2021/01/31 22:41:34;;;;;;;272.27;105.80;;;;;;;;;;5033320;28;20030;-69
2021/01/31 22:44:00;;;;;;;185.70;73.90;;;;;;;;;;5033428;28;20361;-69
2021/01/31 22:46:26;;;;;;;191.27;80.07;;;;;;;;;;5065246;28;20029;-69
2021/01/31 22:48:51;;;;;;;175.88;76.03;;;;;;;;;;5033230;28;20055;-69
2021/01/31 22:51:22;;;;;;;168.45;74.40;;;;;;;;;;5033192;28;20029;-69
2021/01/31 22:53:48;;;;;;;172.57;75.43;;;;;;;;;;5031993;28;20136;-70
2021/01/31 22:56:13;;;;;;;207.70;84.90;;;;;;;;;;5033268;28;20512;-69
2021/01/31 22:58:40;;;;;;;216.27;91.53;;;;;;;;;;5033172;28;20387;-71
2021/01/31 23:01:05;;;;;;;244.98;90.00;;;;;;;;;;5033161;28;20066;-70
2021/01/31 23:03:31;;;;;;;288.85;90.53;;;;;;;;;;5033088;28;20041;-70
2021/01/31 23:05:57;;;;;;;249.55;88.28;;;;;;;;;;5033095;28;20025;-70
2021/01/31 23:08:23;;;;;;;212.32;78.80;;;;;;;;;;5033216;28;20064;-70
2021/01/31 23:10:48;;;;;;;179.13;68.78;;;;;;;;;;5064947;28;20083;-70
2021/01/31 23:13:15;;;;;;;231.80;87.40;;;;;;;;;;5033092;28;20116;-70
2021/01/31 23:15:41;;;;;;;546.95;141.50;;;;;;;;;;5032861;28;20032;-70
2021/01/31 23:18:07;;;;;;;428.80;117.68;;;;;;;;;;5065094;28;20099;-70
2021/01/31 23:20:34;;;;;;;380.42;115.38;;;;;;;;;;5031519;28;20080;-70
2021/01/31 23:23:01;;;;;;;304.65;99.30;;;;;;;;;;5032949;28;20451;-70
2021/01/31 23:25:28;;;;;;;269.13;91.32;;;;;;;;;;5032937;28;20018;-70
2021/01/31 23:27:53;;;;;;;274.10;92.35;;;;;;;;;;5032825;28;20041;-70
2021/01/31 23:30:22;;;;;;;266.33;93.68;;;;;;;;;;5064857;28;20025;-69
2021/01/31 23:32:49;;;;;;;301.00;108.07;;;;;;;;;;5032912;28;20494;-69
2021/01/31 23:35:15;;;;;;;346.98;115.38;;;;;;;;;;5032742;28;20124;-69
2021/01/31 23:37:40;;;;;;;305.83;101.93;;;;;;;;;;5064872;28;20108;-70
2021/01/31 23:40:07;;;;;;;301.42;99.28;;;;;;;;;;5032690;28;20028;-69